createdAt,value
2018-09-24T00:05:01.614Z,18.13
2018-09-24T00:10:05.189Z,18.50
2018-09-24T00:15:08.713Z,12.43
2018-09-24T00:20:12.565Z,18.47
2018-09-24T00:25:16.120Z,21.40
2018-09-24T00:30:19.744Z,14.30
2018-09-24T00:35:23.603Z,7.33
2018-09-24T00:40:27.177Z,19.47
2018-09-24T00:45:30.876Z,38.50
2018-09-24T00:50:34.532Z,28.77
2018-09-24T00:55:38.122Z,32.23
2018-09-24T01:00:41.463Z,16.90
2018-09-24T01:05:45.318Z,21.30
2018-09-24T01:10:49.917Z,21.67
2018-09-24T01:15:53.397Z,18.23
2018-09-24T01:20:57.002Z,11.90
2018-09-24T01:26:01.002Z,20.57
2018-09-24T01:31:04.483Z,16.33
2018-09-24T01:36:08.337Z,8.93
2018-09-24T01:41:11.873Z,9.13
2018-09-24T01:46:15.294Z,16.53
2018-09-24T01:51:19.022Z,13.67
2018-09-24T01:56:25.148Z,18.73
2018-09-24T02:01:28.624Z,19.33
2018-09-24T02:06:32.065Z,11.53
2018-09-24T02:11:35.544Z,12.40
2018-09-24T02:16:38.941Z,18.90
2018-09-24T02:21:42.348Z,13.40
2018-09-24T02:26:46.152Z,21.00
2018-09-24T02:31:49.924Z,21.93
2018-09-24T02:36:53.799Z,25.53
2018-09-24T02:42:16.563Z,18.27
2018-09-24T02:47:20.113Z,18.67
2018-09-24T02:52:23.645Z,37.40
2018-09-24T02:57:27.114Z,47.50
2018-09-24T03:02:34.428Z,32.97
2018-09-24T03:07:38.330Z,29.43
2018-09-24T03:12:50.013Z,42.10
2018-09-24T03:18:11.635Z,32.70
2018-09-24T03:23:15.105Z,19.33
2018-09-24T03:28:18.569Z,34.50
2018-09-24T03:33:22.294Z,19.40
2018-09-24T03:38:26.441Z,30.33
2018-09-24T03:43:30.096Z,31.87
2018-09-24T03:48:33.426Z,17.87
2018-09-24T03:53:37.058Z,22.60
2018-09-24T03:58:40.466Z,30.60
2018-09-24T04:03:44.390Z,27.60
2018-09-24T04:08:55.159Z,21.70
2018-09-24T04:14:04.288Z,22.10
2018-09-24T04:19:13.551Z,31.20
2018-09-24T04:24:22.591Z,17.50
2018-09-24T04:29:31.573Z,24.20
2018-09-24T04:34:40.457Z,30.20
2018-09-24T04:39:49.693Z,16.43
2018-09-24T04:44:58.695Z,23.63
2018-09-24T04:50:11.844Z,29.27
2018-09-24T04:55:22.192Z,14.00
2018-09-24T05:00:31.155Z,15.57
2018-09-24T05:05:39.888Z,14.00
2018-09-24T05:10:49.268Z,16.97
2018-09-24T05:15:58.291Z,19.27
2018-09-24T05:21:07.358Z,17.67
2018-09-24T05:26:16.757Z,16.73
2018-09-24T05:31:25.829Z,16.03
2018-09-24T05:36:36.025Z,19.80
2018-09-24T05:41:45.955Z,14.27
2018-09-24T05:46:54.696Z,14.30
2018-09-24T05:52:03.540Z,6.50
2018-09-24T05:57:13.244Z,9.10
2018-09-24T06:02:22.162Z,9.00
2018-09-24T06:07:31.304Z,2.20
2018-09-24T06:12:40.046Z,5.33
2018-09-24T06:17:48.867Z,3.23
2018-09-24T06:22:57.612Z,8.97
2018-09-24T06:28:06.879Z,4.70
2018-09-24T06:33:16.212Z,7.90
2018-09-24T06:38:25.188Z,14.23
2018-09-24T06:43:36.592Z,6.00
2018-09-24T06:48:45.399Z,9.33
2018-09-24T06:53:54.244Z,9.10
2018-09-24T06:59:03.013Z,9.77
2018-09-24T07:04:11.820Z,23.50
2018-09-24T07:09:20.843Z,20.10
2018-09-24T07:14:29.949Z,11.73
2018-09-24T07:19:39.027Z,12.63
2018-09-24T07:24:47.647Z,17.60
2018-09-24T07:29:56.279Z,13.00
2018-09-24T07:35:05.108Z,7.93
2018-09-24T07:40:13.876Z,11.20
2018-09-24T07:45:22.649Z,12.80
2018-09-24T07:50:31.711Z,12.63
2018-09-24T07:55:40.588Z,8.17
2018-09-24T08:00:52.278Z,15.87
2018-09-24T08:06:01.759Z,9.07
2018-09-24T08:11:10.543Z,9.30
2018-09-24T08:16:19.591Z,11.90
2018-09-24T08:21:29.498Z,5.90
2018-09-24T08:26:38.622Z,15.60
2018-09-24T08:31:47.819Z,14.50
2018-09-24T08:36:56.606Z,16.00
2018-09-24T08:42:05.377Z,11.63
2018-09-24T08:47:14.108Z,16.93
2018-09-24T08:52:22.968Z,12.60
2018-09-24T08:57:32.079Z,11.03
2018-09-24T09:02:41.245Z,10.33
2018-09-24T09:07:50.152Z,16.97
2018-09-24T09:12:58.945Z,13.00
2018-09-24T09:18:07.720Z,10.13
2018-09-24T09:23:16.441Z,14.30
2018-09-24T09:28:25.218Z,5.20
2018-09-24T09:33:34.181Z,8.10
2018-09-24T09:38:42.940Z,14.63
2018-09-24T09:43:51.966Z,10.30
2018-09-24T09:49:00.746Z,34.00
2018-09-24T09:54:09.405Z,0.50
2018-09-24T09:59:18.357Z,0.53
2018-09-24T10:04:27.440Z,0.50
2018-09-24T10:09:40.346Z,0.50
2018-09-24T10:14:50.840Z,0.50
2018-09-24T10:20:00.617Z,0.50
2018-09-24T10:25:10.302Z,0.50
2018-09-24T10:30:19.196Z,0.50
2018-09-24T10:35:27.882Z,0.50
2018-09-24T10:40:36.570Z,0.50
2018-09-24T10:45:45.563Z,0.50
2018-09-24T10:50:55.945Z,0.50
2018-09-24T10:56:05.760Z,0.60
2018-09-24T11:01:14.476Z,0.60
2018-09-24T11:06:23.314Z,0.50
2018-09-24T11:11:32.138Z,0.60
2018-09-24T11:16:41.051Z,0.50
2018-09-24T11:21:50.300Z,2.70
2018-09-24T11:27:01.956Z,6.37
2018-09-24T11:32:10.990Z,15.80
2018-09-24T11:37:20.663Z,3.77
2018-09-24T11:42:29.382Z,5.50
2018-09-24T11:47:38.112Z,7.80
2018-09-24T11:52:46.782Z,12.80
2018-09-24T11:57:55.787Z,1.47
2018-09-24T12:03:07.216Z,1.67
2018-09-24T12:08:17.232Z,1.80
2018-09-24T12:13:25.922Z,0.80
2018-09-24T12:18:37.107Z,3.63
2018-09-24T12:23:45.947Z,3.43
2018-09-24T12:28:54.788Z,2.80
2018-09-24T12:34:03.993Z,9.57
2018-09-24T12:39:13.318Z,2.90
2018-09-24T12:44:22.460Z,3.80
2018-09-24T12:49:31.096Z,2.13
2018-09-24T12:54:39.839Z,3.77
2018-09-24T12:59:48.567Z,2.87
2018-09-24T13:04:57.414Z,5.60
2018-09-24T13:10:06.369Z,16.53
2018-09-24T13:15:16.062Z,5.67
2018-09-24T13:20:24.946Z,9.17
2018-09-24T13:25:33.950Z,8.57
2018-09-24T13:30:42.799Z,10.20
2018-09-24T13:35:57.503Z,22.13
2018-09-24T13:41:07.153Z,8.30
2018-09-24T13:46:16.180Z,12.23
2018-09-24T13:51:25.222Z,6.63
2018-09-24T13:56:34.463Z,7.27
2018-09-24T14:01:43.298Z,12.27
2018-09-24T14:06:51.989Z,5.80
2018-09-24T14:12:01.429Z,7.77
2018-09-24T14:17:10.206Z,9.70
2018-09-24T14:22:19.326Z,11.90
2018-09-24T14:27:28.120Z,6.33
2018-09-24T14:32:37.045Z,7.77
2018-09-24T14:37:45.702Z,7.90
2018-09-24T14:42:54.654Z,12.50
2018-09-24T14:48:03.541Z,16.87
2018-09-24T14:53:12.612Z,12.17
2018-09-24T14:58:21.804Z,8.40
2018-09-24T15:03:30.709Z,7.83
2018-09-24T15:08:40.136Z,8.10
2018-09-24T15:13:49.530Z,8.83
2018-09-24T15:18:58.237Z,6.47
2018-09-24T15:24:07.608Z,7.93
2018-09-24T15:29:16.600Z,11.17
2018-09-24T15:34:25.620Z,13.67
2018-09-24T15:39:34.825Z,9.53
2018-09-24T15:44:43.987Z,8.13
2018-09-24T15:49:52.629Z,13.63
2018-09-24T15:55:01.904Z,13.80
2018-09-24T16:00:14.933Z,15.60
2018-09-24T16:05:24.601Z,13.70
2018-09-24T16:10:33.766Z,12.13
2018-09-24T16:15:44.501Z,7.70
2018-09-24T16:20:58.330Z,9.60
2018-09-24T16:26:08.082Z,14.13
2018-09-24T16:31:16.830Z,16.63
2018-09-24T16:36:26.123Z,16.33
2018-09-24T16:41:35.076Z,21.40
2018-09-24T16:46:44.640Z,17.77
2018-09-24T16:51:53.711Z,14.30
2018-09-24T16:57:02.900Z,18.73
2018-09-24T17:02:12.837Z,15.33
2018-09-24T17:07:21.821Z,16.30
2018-09-24T17:12:30.798Z,16.50
2018-09-24T17:17:39.764Z,16.43
2018-09-24T17:22:49.538Z,15.33
2018-09-24T17:27:59.268Z,21.17
2018-09-24T17:33:08.971Z,13.80
2018-09-24T17:38:18.016Z,12.57
2018-09-24T17:43:27.216Z,17.67
2018-09-24T17:48:36.308Z,21.43
2018-09-24T17:53:46.056Z,16.70
2018-09-24T17:58:56.520Z,13.27
2018-09-24T18:04:06.442Z,19.40
2018-09-24T18:09:16.494Z,14.30
2018-09-24T18:14:26.306Z,17.00
2018-09-24T18:19:36.839Z,16.10
2018-09-24T18:24:46.983Z,13.57
2018-09-24T18:29:57.155Z,16.77
2018-09-24T18:35:08.030Z,20.33
2018-09-24T18:40:18.604Z,17.40
2018-09-24T18:45:28.617Z,31.73
2018-09-24T18:50:39.180Z,22.03
2018-09-24T18:55:49.976Z,28.07
2018-09-24T19:01:00.615Z,16.87
2018-09-24T19:06:10.730Z,11.23
2018-09-24T19:11:27.784Z,24.87
2018-09-24T19:16:30.807Z,25.37
2018-09-24T19:21:41.488Z,29.73
2018-09-24T19:26:51.984Z,22.70
2018-09-24T19:32:02.658Z,18.53
2018-09-24T19:37:12.556Z,15.50
2018-09-24T19:42:22.175Z,24.90
2018-09-24T19:47:31.184Z,21.23
2018-09-24T19:52:40.449Z,15.70
2018-09-24T19:57:49.796Z,13.63
2018-09-24T20:02:58.804Z,12.23
2018-09-24T20:08:08.057Z,19.23
2018-09-24T20:13:17.395Z,17.00
2018-09-24T20:18:26.653Z,17.30
2018-09-24T20:23:35.878Z,17.63
2018-09-24T20:28:45.055Z,17.07
2018-09-24T20:33:54.179Z,25.63
2018-09-24T20:39:03.146Z,18.80
2018-09-24T20:44:12.341Z,16.57
2018-09-24T20:49:21.337Z,12.90
2018-09-24T20:54:30.589Z,23.47
2018-09-24T20:59:39.498Z,15.90
2018-09-24T21:04:48.808Z,19.20
2018-09-24T21:09:57.927Z,14.20
2018-09-24T21:15:07.707Z,18.27
2018-09-24T21:20:17.028Z,17.23
2018-09-24T21:25:26.630Z,30.53
2018-09-24T21:30:35.614Z,16.03
2018-09-24T21:35:44.253Z,27.07
2018-09-24T21:40:53.028Z,17.63
2018-09-24T21:46:01.803Z,26.50
2018-09-24T21:51:20.536Z,24.57
2018-09-24T21:56:31.172Z,37.83
2018-09-24T22:01:40.556Z,25.80
2018-09-24T22:06:49.536Z,15.27
2018-09-24T22:12:00.081Z,23.03
2018-09-24T22:17:13.382Z,21.33
2018-09-24T22:22:22.929Z,20.40
2018-09-24T22:27:36.657Z,14.30
2018-09-24T22:32:46.143Z,22.50
2018-09-24T22:37:55.945Z,14.90
2018-09-24T22:43:05.897Z,15.23
2018-09-24T22:48:15.390Z,12.80
2018-09-24T22:53:24.537Z,12.13
2018-09-24T22:58:33.439Z,13.73
2018-09-24T23:03:42.170Z,16.93
2018-09-24T23:08:51.718Z,16.47
2018-09-24T23:14:01.183Z,13.37
2018-09-24T23:19:10.641Z,29.17
2018-09-24T23:24:20.036Z,10.80
2018-09-24T23:29:29.006Z,9.27
2018-09-24T23:34:38.540Z,30.00
2018-09-24T23:39:47.428Z,13.13
2018-09-24T23:44:56.635Z,15.33
2018-09-24T23:50:06.069Z,14.43
2018-09-24T23:55:15.345Z,21.43
